createdAt,value
2023-04-22T00:00:15.829Z,94223.69
2023-04-22T00:02:43.882Z,94237.59
2023-04-22T00:05:15.922Z,94218.03
2023-04-22T00:07:45.287Z,94196.38
2023-04-22T00:10:12.118Z,94221.78
2023-04-22T00:12:39.042Z,94231.56
2023-04-22T00:15:06.917Z,94230.97
2023-04-22T00:17:33.865Z,94233.25
2023-04-22T00:20:01.578Z,94237.28
2023-04-22T00:22:28.353Z,94243.56
2023-04-22T00:24:55.164Z,94220.31
2023-04-22T00:27:21.967Z,94250.41
2023-04-22T00:29:48.938Z,94242.47
2023-04-22T00:32:15.707Z,94231.22
2023-04-22T00:34:42.424Z,94235.38
2023-04-22T00:37:09.276Z,94201.91
2023-04-22T00:39:39.403Z,94239.31
2023-04-22T00:42:07.800Z,94235.31
2023-04-22T00:44:36.899Z,94238.09
2023-04-22T00:47:04.465Z,94240.53
2023-04-22T00:49:31.548Z,94234.16
2023-04-22T00:51:58.351Z,94226.28
2023-04-22T00:54:25.282Z,94230.53
2023-04-22T00:56:52.213Z,94215.50
2023-04-22T00:59:19.202Z,94228.31
2023-04-22T01:01:46.906Z,94226.53
2023-04-22T01:04:15.093Z,94230.38
2023-04-22T01:06:44.391Z,94224.97
2023-04-22T01:09:11.389Z,94196.78
2023-04-22T01:11:38.438Z,94228.63
2023-04-22T01:14:06.261Z,94243.19
2023-04-22T01:16:35.945Z,94241.00
2023-04-22T01:19:02.994Z,94236.19
2023-04-22T01:21:33.742Z,94235.75
2023-04-22T01:24:01.830Z,94250.88
2023-04-22T01:26:28.843Z,94243.19
2023-04-22T01:28:56.159Z,94245.88
2023-04-22T01:31:22.964Z,94235.56
2023-04-22T01:33:51.017Z,94245.72
2023-04-22T01:36:18.044Z,94192.66
2023-04-22T01:38:45.365Z,94226.13
2023-04-22T01:41:13.836Z,94235.09
2023-04-22T01:43:41.229Z,94237.28
2023-04-22T01:46:09.056Z,94239.53
2023-04-22T01:48:37.015Z,94235.59
2023-04-22T01:51:04.789Z,94233.84
2023-04-22T01:53:31.632Z,94237.81
2023-04-22T01:55:59.927Z,94248.63
2023-04-22T01:58:29.792Z,94231.63
2023-04-22T02:00:57.653Z,94236.47
2023-04-22T02:03:24.557Z,94238.38
2023-04-22T02:05:51.382Z,94235.31
2023-04-22T02:08:18.525Z,94235.88
2023-04-22T02:10:45.452Z,94256.28
2023-04-22T02:13:12.904Z,94250.41
2023-04-22T02:15:41.250Z,94251.72
2023-04-22T02:18:08.355Z,94262.19
2023-04-22T02:20:35.118Z,94242.25
2023-04-22T02:23:02.782Z,94232.94
2023-04-22T02:25:29.980Z,94248.09
2023-04-22T02:27:56.723Z,94236.28
2023-04-22T02:30:24.258Z,94245.84
2023-04-22T02:32:51.699Z,94257.31
2023-04-22T02:35:19.118Z,94242.50
2023-04-22T02:37:45.891Z,94226.00
2023-04-22T02:40:13.005Z,94242.72
2023-04-22T02:42:39.745Z,94223.63
2023-04-22T02:45:07.125Z,94233.09
2023-04-22T02:47:33.910Z,94240.28
2023-04-22T02:50:01.096Z,94256.00
2023-04-22T02:52:28.239Z,94224.50
2023-04-22T02:54:54.953Z,94250.09
2023-04-22T02:57:22.311Z,94247.72
2023-04-22T02:59:49.024Z,94248.53
2023-04-22T03:02:18.407Z,94257.69
2023-04-22T03:04:58.953Z,94212.69
2023-04-22T03:07:25.974Z,94192.06
2023-04-22T03:09:53.623Z,94248.91
2023-04-22T03:12:20.705Z,94232.25
2023-04-22T03:14:47.638Z,94207.78
2023-04-22T03:17:14.648Z,94246.31
2023-04-22T03:19:42.200Z,94246.72
2023-04-22T03:22:09.343Z,94230.44
2023-04-22T03:24:36.951Z,94263.75
2023-04-22T03:27:07.046Z,94246.25
2023-04-22T03:29:34.035Z,94244.97
2023-04-22T03:32:01.245Z,94225.81
2023-04-22T03:34:28.166Z,94213.47
2023-04-22T03:36:54.975Z,94251.88
2023-04-22T03:39:22.202Z,94229.94
2023-04-22T03:41:49.236Z,94240.03
2023-04-22T03:44:16.451Z,94263.94
2023-04-22T03:46:44.201Z,94219.25
2023-04-22T03:49:18.191Z,94207.06
2023-04-22T03:51:44.979Z,94225.31
2023-04-22T03:54:16.552Z,94225.81
2023-04-22T03:56:51.291Z,94259.25
2023-04-22T03:59:21.219Z,94250.41
2023-04-22T04:01:52.790Z,94224.78
2023-04-22T04:04:23.991Z,94225.22
2023-04-22T04:07:01.422Z,94249.00
2023-04-22T04:09:28.981Z,94250.25
2023-04-22T04:11:56.777Z,94229.44
2023-04-22T04:14:23.975Z,94227.59
2023-04-22T04:16:52.600Z,94255.09
2023-04-22T04:19:27.695Z,94268.88
2023-04-22T04:21:54.487Z,94261.97
2023-04-22T04:24:23.155Z,94255.75
2023-04-22T04:26:53.705Z,94262.22
2023-04-22T04:29:27.380Z,94220.81
2023-04-22T04:32:04.873Z,94231.47
2023-04-22T04:34:37.878Z,94242.78
2023-04-22T04:37:06.707Z,94248.59
2023-04-22T04:39:43.589Z,94215.59
2023-04-22T04:42:12.316Z,94277.69
2023-04-22T04:44:51.470Z,94266.44
2023-04-22T04:47:20.308Z,94224.28
2023-04-22T04:49:47.586Z,94229.03
2023-04-22T04:52:14.541Z,94219.22
2023-04-22T04:54:41.558Z,94245.56
2023-04-22T04:57:10.136Z,94241.53
2023-04-22T04:59:38.306Z,94246.97
2023-04-22T05:02:06.534Z,94244.78
2023-04-22T05:04:34.591Z,94240.53
2023-04-22T05:07:01.841Z,94242.28
2023-04-22T05:09:30.032Z,94256.06
2023-04-22T05:11:57.179Z,94209.91
2023-04-22T05:14:25.655Z,94238.16
2023-04-22T05:16:53.273Z,94249.38
2023-04-22T05:19:20.631Z,94214.72
2023-04-22T05:21:48.358Z,94236.34
2023-04-22T05:24:16.913Z,94227.94
2023-04-22T05:26:44.166Z,94263.56
2023-04-22T05:29:15.888Z,94230.50
2023-04-22T05:31:42.766Z,94247.78
2023-04-22T05:34:09.864Z,94251.63
2023-04-22T05:36:37.480Z,94223.19
2023-04-22T05:39:04.911Z,94258.19
2023-04-22T05:41:32.971Z,94257.75
2023-04-22T05:44:00.588Z,94266.47
2023-04-22T05:46:29.454Z,94259.69
2023-04-22T05:48:56.849Z,94202.69
2023-04-22T05:51:43.820Z,94265.66
2023-04-22T05:54:13.693Z,94252.09
2023-04-22T05:56:40.589Z,94258.38
2023-04-22T05:59:07.511Z,94266.50
2023-04-22T06:01:35.686Z,94262.72
2023-04-22T06:04:07.513Z,94199.91
2023-04-22T06:06:34.478Z,94239.69
2023-04-22T06:09:01.444Z,94261.47
2023-04-22T06:11:29.016Z,94261.03
2023-04-22T06:13:55.956Z,94262.69
2023-04-22T06:16:23.830Z,94261.75
2023-04-22T06:18:50.857Z,94252.06
2023-04-22T06:21:17.889Z,94283.34
2023-04-22T06:23:44.599Z,94272.28
2023-04-22T06:26:11.618Z,94260.47
2023-04-22T06:28:39.994Z,94331.53
2023-04-22T06:31:11.605Z,94285.69
2023-04-22T06:33:39.147Z,94303.56
2023-04-22T06:36:06.528Z,94292.09
2023-04-22T06:38:34.853Z,94292.97
2023-04-22T06:41:27.872Z,94267.53
2023-04-22T06:43:59.566Z,94258.66
2023-04-22T06:47:01.420Z,94262.38
2023-04-22T06:49:57.425Z,94296.53
2023-04-22T06:52:40.741Z,94299.75
2023-04-22T06:55:08.003Z,94287.47
2023-04-22T06:57:34.865Z,94322.53
2023-04-22T07:00:01.949Z,94319.00
2023-04-22T07:02:30.161Z,94316.19
2023-04-22T07:04:56.889Z,94363.47
2023-04-22T07:07:25.370Z,94311.38
2023-04-22T07:09:53.060Z,94331.69
2023-04-22T07:12:19.878Z,94344.00
2023-04-22T07:14:49.899Z,94304.72
2023-04-22T07:17:19.462Z,94315.56
2023-04-22T07:19:46.297Z,94307.72
2023-04-22T07:22:13.131Z,94320.56
2023-04-22T07:24:41.046Z,94290.59
2023-04-22T07:27:08.163Z,94295.22
2023-04-22T07:29:35.136Z,94328.69
2023-04-22T07:32:02.298Z,94314.94
2023-04-22T07:34:29.055Z,94364.38
2023-04-22T07:36:56.175Z,94354.28
2023-04-22T07:39:23.313Z,94361.25
2023-04-22T07:41:50.895Z,94349.16
2023-04-22T07:44:21.819Z,94362.97
2023-04-22T07:46:50.271Z,94358.63
2023-04-22T07:49:17.451Z,94373.69
2023-04-22T07:51:45.027Z,94381.63
2023-04-22T07:54:12.139Z,94376.38
2023-04-22T07:56:39.757Z,94390.09
2023-04-22T07:59:07.080Z,94346.56
2023-04-22T08:01:33.850Z,94352.06
2023-04-22T08:04:00.662Z,94308.81
2023-04-22T08:06:28.202Z,94324.47
2023-04-22T08:08:55.152Z,94309.31
2023-04-22T08:11:22.104Z,94348.03
2023-04-22T08:13:48.996Z,94290.41
2023-04-22T08:16:15.863Z,94320.53
2023-04-22T08:18:42.643Z,94300.97
2023-04-22T08:21:10.295Z,94350.00
2023-04-22T08:23:37.169Z,94340.97
2023-04-22T08:26:04.288Z,94331.31
2023-04-22T08:28:31.095Z,94331.53
2023-04-22T08:30:57.876Z,94295.13
2023-04-22T08:33:27.160Z,94328.94
2023-04-22T08:35:54.209Z,94316.38
2023-04-22T08:38:21.108Z,94311.09
2023-04-22T08:40:48.023Z,94294.63
2023-04-22T08:43:15.133Z,94307.91
2023-04-22T08:45:42.340Z,94302.50
2023-04-22T08:48:10.562Z,94324.91
2023-04-22T09:15:57.810Z,94360.44
2023-04-22T09:45:34.173Z,94357.94
2023-04-22T09:48:06.860Z,94370.81
2023-04-22T09:50:33.870Z,94339.06
2023-04-22T09:53:05.976Z,94366.13
2023-04-22T09:55:35.712Z,94383.88
2023-04-22T09:58:11.391Z,94399.53
2023-04-22T10:00:50.181Z,94384.69
2023-04-22T10:03:17.943Z,94375.09
2023-04-22T10:05:46.156Z,94370.09
2023-04-22T10:08:14.804Z,94386.81
2023-04-22T10:10:41.869Z,94351.97
2023-04-22T10:13:09.671Z,94351.06
2023-04-22T10:15:41.554Z,94389.38
2023-04-22T10:18:12.907Z,94364.69
2023-04-22T10:20:42.634Z,94379.56
2023-04-22T10:23:15.970Z,94391.44
2023-04-22T10:25:46.905Z,94346.44
2023-04-22T10:28:16.657Z,94357.91
2023-04-22T10:30:43.544Z,94374.69
2023-04-22T10:33:27.839Z,94363.69
2023-04-22T10:36:08.354Z,94407.50
2023-04-22T10:38:51.541Z,94389.75
2023-04-22T10:41:26.882Z,94409.66
2023-04-22T10:43:58.900Z,94371.72
2023-04-22T10:46:35.540Z,94384.88
2023-04-22T10:49:12.906Z,94347.47
2023-04-22T10:51:40.786Z,94348.88
2023-04-22T10:54:08.163Z,94353.69
2023-04-22T10:56:35.409Z,94382.22
2023-04-22T10:59:16.918Z,94355.53
2023-04-22T11:01:44.774Z,94364.88
2023-04-22T11:04:20.947Z,94327.00
2023-04-22T11:07:30.016Z,94349.16
2023-04-22T11:10:01.117Z,94358.53
2023-04-22T11:12:40.078Z,94381.88
2023-04-22T11:15:15.852Z,94364.41
2023-04-22T11:17:44.817Z,94322.16
2023-04-22T11:20:13.179Z,94331.75
2023-04-22T11:22:43.089Z,94350.59
2023-04-22T11:25:11.333Z,94364.53
2023-04-22T11:27:41.519Z,94336.22
2023-04-22T11:30:13.122Z,94338.00
2023-04-22T11:32:51.241Z,94328.97
2023-04-22T11:35:29.451Z,94336.56
2023-04-22T11:38:01.627Z,94345.44
2023-04-22T11:40:42.090Z,94338.47
2023-04-22T11:43:11.540Z,94294.81
2023-04-22T11:45:39.620Z,94358.16
2023-04-22T11:48:08.627Z,94313.00
2023-04-22T11:50:44.887Z,94294.06
2023-04-22T11:53:19.505Z,94272.59
2023-04-22T11:55:51.117Z,94297.63
2023-04-22T11:58:20.614Z,94292.94
2023-04-22T12:00:52.447Z,94287.28
2023-04-22T12:03:20.551Z,94230.84
2023-04-22T12:05:47.402Z,94248.97
2023-04-22T12:08:16.503Z,94297.31
2023-04-22T12:10:44.457Z,94296.22
2023-04-22T12:13:21.732Z,94253.38
2023-04-22T12:15:49.096Z,94245.94
2023-04-22T12:18:15.954Z,94266.47
2023-04-22T12:20:43.626Z,94264.63
2023-04-22T12:23:15.469Z,94279.09
2023-04-22T12:25:43.762Z,94233.44
2023-04-22T12:28:11.939Z,94249.63
2023-04-22T12:30:38.783Z,94269.75
2023-04-22T12:33:06.782Z,94268.53
2023-04-22T12:35:33.812Z,94264.47
2023-04-22T12:38:00.817Z,94263.13
2023-04-22T12:40:28.035Z,94257.72
2023-04-22T12:42:55.000Z,94247.06
2023-04-22T12:45:23.041Z,94247.72
2023-04-22T12:47:53.817Z,94236.66
2023-04-22T12:50:21.017Z,94239.44
2023-04-22T12:52:47.779Z,94255.81
2023-04-22T12:55:14.490Z,94234.47
2023-04-22T12:57:42.095Z,94234.19
2023-04-22T13:00:14.426Z,94224.72
2023-04-22T13:02:43.625Z,94205.19
2023-04-22T13:05:11.570Z,94202.16
2023-04-22T13:07:40.141Z,94187.34
2023-04-22T13:10:08.535Z,94179.72
2023-04-22T13:12:37.293Z,94179.34
2023-04-22T13:15:06.492Z,94178.91
2023-04-22T13:17:34.242Z,94192.38
2023-04-22T13:20:00.989Z,94203.13
2023-04-22T13:22:28.433Z,94198.53
2023-04-22T13:24:55.406Z,94178.28
2023-04-22T13:27:22.419Z,94188.81
2023-04-22T13:29:49.121Z,94202.63
2023-04-22T13:32:15.931Z,94186.41
2023-04-22T13:34:45.864Z,94200.75
2023-04-22T13:37:15.074Z,94162.22
2023-04-22T13:39:42.839Z,94189.69
2023-04-22T13:42:10.474Z,94191.72
2023-04-22T13:44:37.606Z,94191.03
2023-04-22T13:47:04.362Z,94177.91
2023-04-22T13:49:31.159Z,94202.28
2023-04-22T13:51:58.751Z,94188.22
2023-04-22T13:54:26.141Z,94182.22
2023-04-22T13:56:53.615Z,94189.69
2023-04-22T13:59:20.537Z,94185.25
2023-04-22T14:01:47.268Z,94173.69
2023-04-22T14:04:14.909Z,94168.25
2023-04-22T14:06:42.176Z,94175.81
2023-04-22T14:09:09.923Z,94159.28
2023-04-22T14:11:36.722Z,94170.13
2023-04-22T14:14:03.557Z,94145.09
2023-04-22T14:16:31.739Z,94158.09
2023-04-22T14:19:00.098Z,94141.75
2023-04-22T14:21:29.612Z,94136.47
2023-04-22T14:23:58.333Z,94167.09
2023-04-22T14:26:25.067Z,94148.97
2023-04-22T14:28:51.902Z,94147.34
2023-04-22T14:31:19.804Z,94119.25
2023-04-22T14:33:46.668Z,94153.72
2023-04-22T14:36:13.377Z,94155.53
2023-04-22T14:38:40.096Z,94138.75
2023-04-22T14:41:06.981Z,94167.91
2023-04-22T14:43:34.195Z,94133.00
2023-04-22T14:46:01.190Z,94141.34
2023-04-22T14:48:30.898Z,94144.41
2023-04-22T14:50:58.558Z,94164.91
2023-04-22T14:53:25.876Z,94169.50
2023-04-22T14:55:53.295Z,94149.09
2023-04-22T14:58:20.052Z,94151.53
2023-04-22T15:00:48.412Z,94134.16
2023-04-22T15:03:16.044Z,94151.16
2023-04-22T15:05:43.704Z,94147.91
2023-04-22T15:08:10.513Z,94155.56
2023-04-22T15:10:37.340Z,94130.56
2023-04-22T15:13:04.016Z,94168.59
2023-04-22T15:15:30.912Z,94148.84
2023-04-22T15:17:57.984Z,94159.97
2023-04-22T15:20:25.327Z,94151.09
2023-04-22T15:22:52.272Z,94145.88
2023-04-22T15:25:19.071Z,94143.69
2023-04-22T15:27:46.400Z,94145.22
2023-04-22T15:30:13.831Z,94133.84
2023-04-22T15:32:40.733Z,94138.28
2023-04-22T15:35:08.509Z,94117.41
2023-04-22T15:37:35.317Z,94121.84
2023-04-22T15:40:02.120Z,94109.63
2023-04-22T15:42:29.024Z,94117.28
2023-04-22T15:44:55.796Z,94133.50
2023-04-22T15:47:22.691Z,94111.88
2023-04-22T15:49:49.711Z,94130.31
2023-04-22T15:52:18.283Z,94127.22
2023-04-22T15:54:46.011Z,94123.19
2023-04-22T15:57:13.033Z,94127.56
2023-04-22T15:59:40.024Z,94120.63
2023-04-22T16:02:08.909Z,94115.75
2023-04-22T16:04:36.347Z,94100.75
2023-04-22T16:07:03.392Z,94095.75
2023-04-22T16:09:31.143Z,94105.50
2023-04-22T16:11:58.089Z,94103.59
2023-04-22T16:14:24.837Z,94098.44
2023-04-22T16:16:52.516Z,94086.97
2023-04-22T16:19:19.683Z,94092.63
2023-04-22T16:21:46.748Z,94069.97
2023-04-22T16:24:14.640Z,94090.00
2023-04-22T16:26:43.120Z,94088.31
2023-04-22T16:29:09.855Z,94080.22
2023-04-22T16:31:38.953Z,94093.94
2023-04-22T16:34:05.870Z,94091.69
2023-04-22T16:36:32.751Z,94076.09
2023-04-22T16:38:59.609Z,94067.50
2023-04-22T16:41:26.372Z,94067.00
2023-04-22T16:43:53.212Z,94086.84
2023-04-22T16:46:20.024Z,94082.38
2023-04-22T16:48:46.995Z,94081.44
2023-04-22T16:51:14.009Z,94078.75
2023-04-22T16:53:41.266Z,94083.41
2023-04-22T16:56:08.181Z,94082.56
2023-04-22T16:58:34.913Z,94057.22
2023-04-22T17:01:02.078Z,94066.56
2023-04-22T17:03:30.141Z,94058.81
2023-04-22T17:05:57.369Z,94038.34
2023-04-22T17:08:24.507Z,94035.00
2023-04-22T17:10:52.419Z,94019.94
2023-04-22T17:13:19.155Z,94010.19
2023-04-22T17:15:47.154Z,94002.28
2023-04-22T17:18:15.086Z,93993.56
2023-04-22T17:20:43.126Z,93955.38
2023-04-22T17:23:10.115Z,93964.75
2023-04-22T17:25:37.257Z,93935.47
2023-04-22T17:28:04.483Z,93930.94
2023-04-22T17:30:32.314Z,93927.78
2023-04-22T17:32:59.441Z,93921.72
2023-04-22T17:35:26.705Z,93916.81
2023-04-22T17:37:53.914Z,93908.53
2023-04-22T17:40:22.097Z,93921.06
2023-04-22T17:42:48.861Z,93899.66
2023-04-22T17:45:16.375Z,93898.16
2023-04-22T17:47:43.369Z,93929.66
2023-04-22T17:50:10.638Z,93930.84
2023-04-22T17:52:37.445Z,93939.44
2023-04-22T17:55:04.632Z,93947.47
2023-04-22T17:57:31.883Z,93947.75
2023-04-22T17:59:58.645Z,93949.97
2023-04-22T18:02:25.648Z,93966.97
2023-04-22T18:04:52.686Z,93975.97
2023-04-22T18:07:19.436Z,93960.22
2023-04-22T18:09:46.787Z,93972.69
2023-04-22T18:12:13.590Z,93984.25
2023-04-22T18:14:40.436Z,93997.50
2023-04-22T18:17:07.393Z,94018.50
2023-04-22T18:19:34.146Z,94027.00
2023-04-22T18:22:01.777Z,94024.25
2023-04-22T18:24:28.776Z,94040.63
2023-04-22T18:26:55.626Z,94044.69
2023-04-22T18:29:22.358Z,94045.16
2023-04-22T18:31:49.148Z,94055.69
2023-04-22T18:34:16.123Z,94053.09
2023-04-22T18:36:42.929Z,94040.22
2023-04-22T18:39:10.043Z,94057.94
2023-04-22T18:41:38.674Z,94072.31
2023-04-22T18:44:06.360Z,94097.16
2023-04-22T18:46:34.872Z,94100.28
2023-04-22T18:49:04.619Z,94106.03
2023-04-22T18:51:33.955Z,94085.16
2023-04-22T18:54:04.740Z,94107.66
2023-04-22T18:56:34.060Z,94114.88
2023-04-22T18:59:01.625Z,94129.53
2023-04-22T19:01:33.006Z,94131.28
2023-04-22T19:04:05.009Z,94126.94
2023-04-22T19:06:33.440Z,94139.47
2023-04-22T19:09:01.342Z,94116.44
2023-04-22T19:11:29.250Z,94126.16
2023-04-22T19:13:57.613Z,94107.69
2023-04-22T19:16:26.337Z,94132.16
2023-04-22T19:18:53.369Z,94155.22
2023-04-22T19:21:20.331Z,94152.38
2023-04-22T19:23:47.355Z,94152.75
2023-04-22T19:26:14.490Z,94149.31
2023-04-22T19:28:47.390Z,94166.56
2023-04-22T19:31:15.607Z,94149.41
2023-04-22T19:33:43.769Z,94153.38
2023-04-22T19:36:11.008Z,94163.88
2023-04-22T19:38:37.791Z,94159.75
2023-04-22T19:41:04.510Z,94147.97
2023-04-22T19:43:32.914Z,94171.94
2023-04-22T19:45:59.676Z,94171.78
2023-04-22T19:48:26.807Z,94164.88
2023-04-22T19:50:53.654Z,94162.63
2023-04-22T19:53:23.186Z,94156.44
2023-04-22T19:55:50.394Z,94165.81
2023-04-22T19:58:18.061Z,94170.38
2023-04-22T20:00:45.674Z,94140.97
2023-04-22T20:03:14.508Z,94161.75
2023-04-22T20:05:43.753Z,94159.19
2023-04-22T20:08:12.056Z,94149.78
2023-04-22T20:10:38.923Z,94154.59
2023-04-22T20:13:06.243Z,94153.63
2023-04-22T20:15:33.903Z,94180.47
2023-04-22T20:18:01.846Z,94181.16
2023-04-22T20:20:29.024Z,94187.69
2023-04-22T20:23:00.015Z,94174.47
2023-04-22T20:25:28.782Z,94204.28
2023-04-22T20:27:56.731Z,94186.00
2023-04-22T20:30:23.546Z,94188.69
2023-04-22T20:32:50.373Z,94198.81
2023-04-22T20:35:17.544Z,94163.28
2023-04-22T20:37:47.284Z,94205.38
2023-04-22T20:40:15.278Z,94161.03
2023-04-22T20:42:42.215Z,94179.88
2023-04-22T20:45:14.991Z,94172.69
2023-04-22T20:47:42.504Z,94185.34
2023-04-22T20:50:09.726Z,94196.75
2023-04-22T20:52:36.637Z,94185.50
2023-04-22T20:55:06.736Z,94193.06
2023-04-22T20:57:34.337Z,94164.56
2023-04-22T21:00:01.463Z,94180.16
2023-04-22T21:02:29.341Z,94197.22
2023-04-22T21:04:57.626Z,94178.22
2023-04-22T21:07:26.501Z,94189.13
2023-04-22T21:09:53.445Z,94195.22
2023-04-22T21:12:20.472Z,94175.84
2023-04-22T21:14:48.246Z,94185.25
2023-04-22T21:17:21.472Z,94194.75
2023-04-22T21:19:50.579Z,94185.75
2023-04-22T21:22:23.454Z,94201.88
2023-04-22T21:24:51.453Z,94197.63
2023-04-22T21:27:19.701Z,94188.59
2023-04-22T21:29:47.753Z,94202.47
2023-04-22T21:32:14.888Z,94203.84
2023-04-22T21:34:41.959Z,94204.56
2023-04-22T21:37:09.369Z,94196.53
2023-04-22T21:39:36.599Z,94213.09
2023-04-22T21:42:08.148Z,94209.66
2023-04-22T21:44:37.350Z,94210.31
2023-04-22T21:47:05.079Z,94193.13
2023-04-22T21:49:32.445Z,94218.69
2023-04-22T21:51:59.735Z,94199.91
2023-04-22T21:54:26.609Z,94193.88
2023-04-22T21:56:53.451Z,94204.13
2023-04-22T21:59:20.395Z,94208.50
2023-04-22T22:01:47.179Z,94213.56
2023-04-22T22:04:16.217Z,94213.69
2023-04-22T22:06:44.930Z,94218.28
2023-04-22T22:09:12.582Z,94213.63
2023-04-22T22:11:39.321Z,94215.28
2023-04-22T22:14:06.088Z,94208.38
2023-04-22T22:16:38.314Z,94210.66
2023-04-22T22:19:05.586Z,94202.63
2023-04-22T22:21:33.420Z,94206.41
2023-04-22T22:24:00.130Z,94200.88
2023-04-22T22:26:27.963Z,94215.91
2023-04-22T22:28:55.084Z,94212.88
2023-04-22T22:31:21.872Z,94202.81
2023-04-22T22:33:49.290Z,94199.38
2023-04-22T22:36:16.338Z,94211.53
2023-04-22T22:38:43.387Z,94203.81
2023-04-22T22:41:10.105Z,94211.16
2023-04-22T22:43:36.890Z,94201.34
2023-04-22T22:46:03.715Z,94230.53
2023-04-22T22:48:30.571Z,94222.81
2023-04-22T22:50:57.350Z,94224.28
2023-04-22T22:53:24.025Z,94235.22
2023-04-22T22:55:50.919Z,94221.47
2023-04-22T22:58:17.725Z,94214.19
2023-04-22T23:00:45.153Z,94229.84
2023-04-22T23:03:12.754Z,94215.78
2023-04-22T23:05:39.597Z,94211.56
2023-04-22T23:08:06.943Z,94222.22
2023-04-22T23:10:33.698Z,94216.16
2023-04-22T23:13:00.603Z,94218.25
2023-04-22T23:15:27.379Z,94213.06
2023-04-22T23:17:54.200Z,94212.47
2023-04-22T23:20:22.170Z,94227.28
2023-04-22T23:22:51.477Z,94215.25
2023-04-22T23:25:18.999Z,94218.91
2023-04-22T23:27:46.166Z,94212.81
2023-04-22T23:30:13.694Z,94211.25
2023-04-22T23:32:42.490Z,94206.38
2023-04-22T23:35:11.891Z,94210.91
2023-04-22T23:37:44.894Z,94211.28
2023-04-22T23:40:12.483Z,94213.75
2023-04-22T23:42:39.354Z,94195.00
2023-04-22T23:45:07.332Z,94205.19
2023-04-22T23:47:34.130Z,94207.22
2023-04-22T23:50:00.815Z,94221.47
2023-04-22T23:52:27.555Z,94207.63
2023-04-22T23:54:55.198Z,94220.47
2023-04-22T23:57:22.182Z,94210.94
2023-04-22T23:59:49.178Z,94208.00
